sensor_id;sensor_type;location;lat;lon;timestamp;P1;durP1;ratioP1;P2;durP2;ratioP2
43606;SDS011;29197;44.788;10.366;2024-01-06T00:00:03;1.20;;;1.10;;
43606;SDS011;29197;44.788;10.366;2024-01-06T00:02:52;1.40;;;1.17;;
43606;SDS011;29197;44.788;10.366;2024-01-06T00:05:42;2.20;;;1.20;;
43606;SDS011;29197;44.788;10.366;2024-01-06T00:08:31;1.33;;;1.23;;
43606;SDS011;29197;44.788;10.366;2024-01-06T00:11:20;1.40;;;1.30;;
43606;SDS011;29197;44.788;10.366;2024-01-06T00:14:09;1.40;;;1.20;;
43606;SDS011;29197;44.788;10.366;2024-01-06T00:16:58;1.40;;;1.13;;
43606;SDS011;29197;44.788;10.366;2024-01-06T00:19:47;1.30;;;1.20;;
43606;SDS011;29197;44.788;10.366;2024-01-06T00:22:39;2.10;;;1.23;;
43606;SDS011;29197;44.788;10.366;2024-01-06T00:25:30;1.30;;;1.20;;
43606;SDS011;29197;44.788;10.366;2024-01-06T00:28:19;1.20;;;1.10;;
43606;SDS011;29197;44.788;10.366;2024-01-06T00:31:08;1.33;;;1.20;;
43606;SDS011;29197;44.788;10.366;2024-01-06T00:33:57;1.00;;;1.00;;
43606;SDS011;29197;44.788;10.366;2024-01-06T00:36:46;1.30;;;1.20;;
43606;SDS011;29197;44.788;10.366;2024-01-06T00:39:37;1.33;;;1.23;;
43606;SDS011;29197;44.788;10.366;2024-01-06T00:42:26;2.03;;;1.53;;
43606;SDS011;29197;44.788;10.366;2024-01-06T00:45:15;1.33;;;1.23;;
43606;SDS011;29197;44.788;10.366;2024-01-06T00:48:05;1.97;;;1.37;;
43606;SDS011;29197;44.788;10.366;2024-01-06T00:50:54;1.27;;;1.17;;
43606;SDS011;29197;44.788;10.366;2024-01-06T00:53:43;1.10;;;1.00;;
43606;SDS011;29197;44.788;10.366;2024-01-06T00:56:33;1.77;;;0.90;;
43606;SDS011;29197;44.788;10.366;2024-01-06T00:59:22;1.23;;;1.10;;
43606;SDS011;29197;44.788;10.366;2024-01-06T01:02:11;1.33;;;1.10;;
43606;SDS011;29197;44.788;10.366;2024-01-06T01:04:59;1.10;;;1.00;;
43606;SDS011;29197;44.788;10.366;2024-01-06T01:07:49;1.13;;;1.13;;
43606;SDS011;29197;44.788;10.366;2024-01-06T01:10:37;1.40;;;1.30;;
43606;SDS011;29197;44.788;10.366;2024-01-06T01:13:28;3.23;;;1.70;;
43606;SDS011;29197;44.788;10.366;2024-01-06T01:16:17;1.60;;;1.50;;
43606;SDS011;29197;44.788;10.366;2024-01-06T01:19:05;2.73;;;1.50;;
43606;SDS011;29197;44.788;10.366;2024-01-06T01:21:55;1.47;;;1.23;;
43606;SDS011;29197;44.788;10.366;2024-01-06T01:24:44;1.40;;;1.30;;
43606;SDS011;29197;44.788;10.366;2024-01-06T01:27:33;1.97;;;1.47;;
43606;SDS011;29197;44.788;10.366;2024-01-06T01:30:23;1.60;;;1.50;;
43606;SDS011;29197;44.788;10.366;2024-01-06T01:33:12;1.70;;;1.40;;
43606;SDS011;29197;44.788;10.366;2024-01-06T01:36:01;2.87;;;1.33;;
43606;SDS011;29197;44.788;10.366;2024-01-06T01:38:50;1.33;;;1.00;;
43606;SDS011;29197;44.788;10.366;2024-01-06T01:41:39;1.40;;;1.30;;
43606;SDS011;29197;44.788;10.366;2024-01-06T01:44:28;1.13;;;1.03;;
43606;SDS011;29197;44.788;10.366;2024-01-06T01:47:18;1.20;;;1.10;;
43606;SDS011;29197;44.788;10.366;2024-01-06T01:50:08;1.20;;;1.20;;
43606;SDS011;29197;44.788;10.366;2024-01-06T01:52:58;1.30;;;1.27;;
43606;SDS011;29197;44.788;10.366;2024-01-06T01:55:48;0.80;;;0.80;;
43606;SDS011;29197;44.788;10.366;2024-01-06T01:58:37;0.87;;;0.83;;
43606;SDS011;29197;44.788;10.366;2024-01-06T02:01:26;1.20;;;1.10;;
43606;SDS011;29197;44.788;10.366;2024-01-06T02:04:16;1.33;;;0.93;;
43606;SDS011;29197;44.788;10.366;2024-01-06T02:07:05;0.90;;;0.90;;
43606;SDS011;29197;44.788;10.366;2024-01-06T02:09:54;1.10;;;1.00;;
43606;SDS011;29197;44.788;10.366;2024-01-06T02:12:43;1.80;;;1.00;;
43606;SDS011;29197;44.788;10.366;2024-01-06T02:15:31;1.77;;;1.10;;
43606;SDS011;29197;44.788;10.366;2024-01-06T02:18:21;1.10;;;1.00;;
43606;SDS011;29197;44.788;10.366;2024-01-06T02:21:11;0.83;;;0.83;;
43606;SDS011;29197;44.788;10.366;2024-01-06T02:24:02;0.90;;;0.90;;
43606;SDS011;29197;44.788;10.366;2024-01-06T02:26:51;0.90;;;0.90;;
43606;SDS011;29197;44.788;10.366;2024-01-06T02:29:40;1.20;;;1.10;;
43606;SDS011;29197;44.788;10.366;2024-01-06T02:32:29;1.00;;;1.00;;
43606;SDS011;29197;44.788;10.366;2024-01-06T02:35:18;1.03;;;0.90;;
43606;SDS011;29197;44.788;10.366;2024-01-06T02:38:07;1.00;;;1.00;;
43606;SDS011;29197;44.788;10.366;2024-01-06T02:40:58;1.30;;;1.20;;
43606;SDS011;29197;44.788;10.366;2024-01-06T02:43:47;1.40;;;1.30;;
43606;SDS011;29197;44.788;10.366;2024-01-06T02:46:35;1.20;;;1.20;;
43606;SDS011;29197;44.788;10.366;2024-01-06T02:49:24;1.30;;;1.20;;
43606;SDS011;29197;44.788;10.366;2024-01-06T02:52:27;1.20;;;1.13;;
43606;SDS011;29197;44.788;10.366;2024-01-06T02:55:16;3.17;;;1.50;;
43606;SDS011;29197;44.788;10.366;2024-01-06T02:58:06;1.40;;;1.30;;
43606;SDS011;29197;44.788;10.366;2024-01-06T03:00:55;1.50;;;1.40;;
43606;SDS011;29197;44.788;10.366;2024-01-06T03:03:46;1.50;;;1.40;;
43606;SDS011;29197;44.788;10.366;2024-01-06T03:06:35;1.57;;;1.47;;
43606;SDS011;29197;44.788;10.366;2024-01-06T03:09:24;1.40;;;1.30;;
43606;SDS011;29197;44.788;10.366;2024-01-06T03:12:13;2.80;;;1.60;;
43606;SDS011;29197;44.788;10.366;2024-01-06T03:15:03;1.67;;;1.57;;
43606;SDS011;29197;44.788;10.366;2024-01-06T03:17:53;1.33;;;1.23;;
43606;SDS011;29197;44.788;10.366;2024-01-06T03:20:42;1.40;;;1.30;;
43606;SDS011;29197;44.788;10.366;2024-01-06T03:23:31;1.53;;;1.43;;
43606;SDS011;29197;44.788;10.366;2024-01-06T03:26:21;1.40;;;1.30;;
43606;SDS011;29197;44.788;10.366;2024-01-06T03:29:10;1.47;;;1.23;;
43606;SDS011;29197;44.788;10.366;2024-01-06T03:32:01;1.50;;;1.40;;
43606;SDS011;29197;44.788;10.366;2024-01-06T03:34:50;1.80;;;1.30;;
43606;SDS011;29197;44.788;10.366;2024-01-06T03:37:39;1.67;;;1.40;;
43606;SDS011;29197;44.788;10.366;2024-01-06T03:40:27;1.30;;;1.20;;
43606;SDS011;29197;44.788;10.366;2024-01-06T03:43:16;1.00;;;0.90;;
43606;SDS011;29197;44.788;10.366;2024-01-06T03:46:05;1.17;;;1.10;;
43606;SDS011;29197;44.788;10.366;2024-01-06T03:48:55;1.30;;;1.20;;
43606;SDS011;29197;44.788;10.366;2024-01-06T03:51:45;0.80;;;0.80;;
43606;SDS011;29197;44.788;10.366;2024-01-06T03:54:34;1.20;;;1.00;;
43606;SDS011;29197;44.788;10.366;2024-01-06T03:57:22;1.33;;;1.23;;
43606;SDS011;29197;44.788;10.366;2024-01-06T04:00:12;1.13;;;1.13;;
43606;SDS011;29197;44.788;10.366;2024-01-06T04:03:01;1.37;;;1.30;;
43606;SDS011;29197;44.788;10.366;2024-01-06T04:05:51;1.33;;;1.20;;
43606;SDS011;29197;44.788;10.366;2024-01-06T04:08:40;2.23;;;1.37;;
43606;SDS011;29197;44.788;10.366;2024-01-06T04:11:29;1.60;;;1.50;;
43606;SDS011;29197;44.788;10.366;2024-01-06T04:14:18;1.47;;;1.27;;
43606;SDS011;29197;44.788;10.366;2024-01-06T04:17:07;1.67;;;1.10;;
43606;SDS011;29197;44.788;10.366;2024-01-06T04:19:56;1.17;;;1.17;;
43606;SDS011;29197;44.788;10.366;2024-01-06T04:22:46;1.30;;;1.20;;
43606;SDS011;29197;44.788;10.366;2024-01-06T04:25:35;1.50;;;1.37;;
43606;SDS011;29197;44.788;10.366;2024-01-06T04:28:24;1.47;;;1.37;;
43606;SDS011;29197;44.788;10.366;2024-01-06T04:31:13;1.50;;;1.40;;
43606;SDS011;29197;44.788;10.366;2024-01-06T04:34:02;1.53;;;1.40;;
43606;SDS011;29197;44.788;10.366;2024-01-06T04:36:51;1.47;;;1.37;;
43606;SDS011;29197;44.788;10.366;2024-01-06T04:39:41;1.60;;;1.50;;
43606;SDS011;29197;44.788;10.366;2024-01-06T04:42:30;1.77;;;1.67;;
43606;SDS011;29197;44.788;10.366;2024-01-06T04:45:19;1.70;;;1.60;;
43606;SDS011;29197;44.788;10.366;2024-01-06T04:48:10;1.40;;;1.30;;
43606;SDS011;29197;44.788;10.366;2024-01-06T04:51:00;2.13;;;1.90;;
43606;SDS011;29197;44.788;10.366;2024-01-06T04:53:50;2.00;;;1.50;;
43606;SDS011;29197;44.788;10.366;2024-01-06T04:56:40;1.80;;;1.70;;
43606;SDS011;29197;44.788;10.366;2024-01-06T04:59:29;2.57;;;1.80;;
43606;SDS011;29197;44.788;10.366;2024-01-06T05:02:18;2.03;;;1.90;;
43606;SDS011;29197;44.788;10.366;2024-01-06T05:05:07;1.80;;;1.70;;
43606;SDS011;29197;44.788;10.366;2024-01-06T05:07:56;2.33;;;2.00;;
43606;SDS011;29197;44.788;10.366;2024-01-06T05:10:45;1.63;;;1.53;;
43606;SDS011;29197;44.788;10.366;2024-01-06T05:13:37;1.90;;;1.80;;
43606;SDS011;29197;44.788;10.366;2024-01-06T05:16:26;1.90;;;1.67;;
43606;SDS011;29197;44.788;10.366;2024-01-06T05:19:15;1.73;;;1.63;;
43606;SDS011;29197;44.788;10.366;2024-01-06T05:22:07;5.43;;;2.00;;
43606;SDS011;29197;44.788;10.366;2024-01-06T05:24:56;2.17;;;1.97;;
43606;SDS011;29197;44.788;10.366;2024-01-06T05:27:45;2.13;;;1.90;;
43606;SDS011;29197;44.788;10.366;2024-01-06T05:30:35;2.10;;;1.90;;
43606;SDS011;29197;44.788;10.366;2024-01-06T05:33:24;1.80;;;1.70;;
43606;SDS011;29197;44.788;10.366;2024-01-06T05:36:13;1.83;;;1.73;;
43606;SDS011;29197;44.788;10.366;2024-01-06T05:39:02;2.10;;;2.00;;
43606;SDS011;29197;44.788;10.366;2024-01-06T05:41:51;1.87;;;1.77;;
43606;SDS011;29197;44.788;10.366;2024-01-06T05:44:40;1.87;;;1.77;;
43606;SDS011;29197;44.788;10.366;2024-01-06T05:47:30;2.00;;;1.50;;
43606;SDS011;29197;44.788;10.366;2024-01-06T05:50:19;2.07;;;1.87;;
43606;SDS011;29197;44.788;10.366;2024-01-06T05:53:08;2.73;;;1.90;;
43606;SDS011;29197;44.788;10.366;2024-01-06T05:55:57;1.90;;;1.80;;
43606;SDS011;29197;44.788;10.366;2024-01-06T05:58:46;3.17;;;1.60;;
43606;SDS011;29197;44.788;10.366;2024-01-06T06:01:35;1.50;;;1.40;;
43606;SDS011;29197;44.788;10.366;2024-01-06T06:04:25;3.53;;;1.60;;
43606;SDS011;29197;44.788;10.366;2024-01-06T06:07:14;2.17;;;1.70;;
43606;SDS011;29197;44.788;10.366;2024-01-06T06:10:04;2.87;;;2.00;;
43606;SDS011;29197;44.788;10.366;2024-01-06T06:12:53;2.23;;;2.03;;
43606;SDS011;29197;44.788;10.366;2024-01-06T06:15:42;2.00;;;1.90;;
43606;SDS011;29197;44.788;10.366;2024-01-06T06:18:30;1.97;;;1.80;;
43606;SDS011;29197;44.788;10.366;2024-01-06T06:21:21;2.20;;;2.00;;
43606;SDS011;29197;44.788;10.366;2024-01-06T06:24:10;2.30;;;2.10;;
43606;SDS011;29197;44.788;10.366;2024-01-06T06:27:00;2.20;;;2.00;;
43606;SDS011;29197;44.788;10.366;2024-01-06T06:29:49;2.60;;;2.40;;
43606;SDS011;29197;44.788;10.366;2024-01-06T06:32:38;2.53;;;2.33;;
43606;SDS011;29197;44.788;10.366;2024-01-06T06:35:27;2.77;;;2.50;;
43606;SDS011;29197;44.788;10.366;2024-01-06T06:38:17;2.63;;;2.30;;
43606;SDS011;29197;44.788;10.366;2024-01-06T06:41:07;2.70;;;2.47;;
43606;SDS011;29197;44.788;10.366;2024-01-06T06:43:56;2.80;;;2.50;;
43606;SDS011;29197;44.788;10.366;2024-01-06T06:46:46;2.63;;;2.43;;
43606;SDS011;29197;44.788;10.366;2024-01-06T06:49:35;2.67;;;2.47;;
43606;SDS011;29197;44.788;10.366;2024-01-06T06:52:24;3.10;;;2.80;;
43606;SDS011;29197;44.788;10.366;2024-01-06T06:55:14;3.00;;;2.70;;
43606;SDS011;29197;44.788;10.366;2024-01-06T06:58:03;2.87;;;2.67;;
43606;SDS011;29197;44.788;10.366;2024-01-06T07:00:53;3.27;;;2.90;;
43606;SDS011;29197;44.788;10.366;2024-01-06T07:03:42;3.37;;;2.83;;
43606;SDS011;29197;44.788;10.366;2024-01-06T07:06:31;3.07;;;2.73;;
43606;SDS011;29197;44.788;10.366;2024-01-06T07:09:20;3.87;;;2.70;;
43606;SDS011;29197;44.788;10.366;2024-01-06T07:12:12;3.90;;;2.93;;
43606;SDS011;29197;44.788;10.366;2024-01-06T07:15:01;2.87;;;2.57;;
43606;SDS011;29197;44.788;10.366;2024-01-06T07:17:53;2.60;;;2.37;;
43606;SDS011;29197;44.788;10.366;2024-01-06T07:20:42;2.37;;;2.17;;
43606;SDS011;29197;44.788;10.366;2024-01-06T07:23:31;4.17;;;2.93;;
43606;SDS011;29197;44.788;10.366;2024-01-06T07:26:20;3.03;;;2.73;;
43606;SDS011;29197;44.788;10.366;2024-01-06T07:29:10;3.25;;;2.95;;
43606;SDS011;29197;44.788;10.366;2024-01-06T07:31:59;3.33;;;3.10;;
43606;SDS011;29197;44.788;10.366;2024-01-06T07:34:48;5.13;;;3.20;;
43606;SDS011;29197;44.788;10.366;2024-01-06T07:37:37;4.50;;;3.70;;
43606;SDS011;29197;44.788;10.366;2024-01-06T07:40:26;4.30;;;3.90;;
43606;SDS011;29197;44.788;10.366;2024-01-06T07:43:15;7.10;;;4.40;;
43606;SDS011;29197;44.788;10.366;2024-01-06T07:46:05;4.50;;;3.90;;
43606;SDS011;29197;44.788;10.366;2024-01-06T07:48:56;6.17;;;4.77;;
43606;SDS011;29197;44.788;10.366;2024-01-06T07:51:45;4.83;;;4.37;;
43606;SDS011;29197;44.788;10.366;2024-01-06T07:54:34;4.60;;;4.13;;
43606;SDS011;29197;44.788;10.366;2024-01-06T07:57:23;5.40;;;4.17;;
43606;SDS011;29197;44.788;10.366;2024-01-06T08:00:12;4.93;;;4.37;;
43606;SDS011;29197;44.788;10.366;2024-01-06T08:03:04;4.57;;;4.17;;
43606;SDS011;29197;44.788;10.366;2024-01-06T08:05:53;5.40;;;4.90;;
43606;SDS011;29197;44.788;10.366;2024-01-06T08:08:43;5.10;;;4.60;;
43606;SDS011;29197;44.788;10.366;2024-01-06T08:11:32;5.73;;;4.37;;
43606;SDS011;29197;44.788;10.366;2024-01-06T08:14:21;5.27;;;4.77;;
43606;SDS011;29197;44.788;10.366;2024-01-06T08:17:10;4.70;;;4.20;;
43606;SDS011;29197;44.788;10.366;2024-01-06T08:20:05;5.43;;;4.53;;
43606;SDS011;29197;44.788;10.366;2024-01-06T08:22:54;5.87;;;4.60;;
43606;SDS011;29197;44.788;10.366;2024-01-06T08:25:43;5.93;;;4.80;;
43606;SDS011;29197;44.788;10.366;2024-01-06T08:28:32;8.83;;;5.43;;
43606;SDS011;29197;44.788;10.366;2024-01-06T08:31:21;6.13;;;5.20;;
43606;SDS011;29197;44.788;10.366;2024-01-06T08:34:10;8.63;;;5.40;;
43606;SDS011;29197;44.788;10.366;2024-01-06T08:37:00;6.20;;;4.57;;
43606;SDS011;29197;44.788;10.366;2024-01-06T08:39:50;8.63;;;6.20;;
43606;SDS011;29197;44.788;10.366;2024-01-06T08:42:39;4.90;;;4.40;;
43606;SDS011;29197;44.788;10.366;2024-01-06T08:45:30;5.13;;;4.60;;
43606;SDS011;29197;44.788;10.366;2024-01-06T08:48:19;6.60;;;4.87;;
43606;SDS011;29197;44.788;10.366;2024-01-06T08:51:09;5.07;;;4.57;;
43606;SDS011;29197;44.788;10.366;2024-01-06T08:53:59;7.07;;;4.70;;
43606;SDS011;29197;44.788;10.366;2024-01-06T08:56:50;4.60;;;4.20;;
43606;SDS011;29197;44.788;10.366;2024-01-06T08:59:39;4.97;;;4.30;;
43606;SDS011;29197;44.788;10.366;2024-01-06T09:02:28;5.17;;;4.30;;
43606;SDS011;29197;44.788;10.366;2024-01-06T09:05:16;4.73;;;4.23;;
43606;SDS011;29197;44.788;10.366;2024-01-06T09:08:06;5.17;;;4.30;;
43606;SDS011;29197;44.788;10.366;2024-01-06T09:10:56;5.73;;;4.60;;
43606;SDS011;29197;44.788;10.366;2024-01-06T09:13:45;5.50;;;4.53;;
43606;SDS011;29197;44.788;10.366;2024-01-06T09:16:34;6.07;;;4.03;;
43606;SDS011;29197;44.788;10.366;2024-01-06T09:19:23;5.07;;;4.40;;
43606;SDS011;29197;44.788;10.366;2024-01-06T09:22:15;4.70;;;4.00;;
43606;SDS011;29197;44.788;10.366;2024-01-06T09:25:04;5.30;;;4.10;;
43606;SDS011;29197;44.788;10.366;2024-01-06T09:27:54;4.50;;;4.00;;
43606;SDS011;29197;44.788;10.366;2024-01-06T09:30:43;4.43;;;4.00;;
43606;SDS011;29197;44.788;10.366;2024-01-06T09:33:32;5.33;;;4.03;;
43606;SDS011;29197;44.788;10.366;2024-01-06T09:36:22;8.23;;;3.87;;
43606;SDS011;29197;44.788;10.366;2024-01-06T09:39:10;5.03;;;3.70;;
43606;SDS011;29197;44.788;10.366;2024-01-06T09:41:59;4.40;;;3.50;;
43606;SDS011;29197;44.788;10.366;2024-01-06T09:44:50;3.77;;;3.30;;
43606;SDS011;29197;44.788;10.366;2024-01-06T09:47:40;3.40;;;3.00;;
43606;SDS011;29197;44.788;10.366;2024-01-06T09:50:29;4.60;;;3.57;;
43606;SDS011;29197;44.788;10.366;2024-01-06T09:53:18;3.87;;;3.27;;
43606;SDS011;29197;44.788;10.366;2024-01-06T09:56:07;3.63;;;2.87;;
43606;SDS011;29197;44.788;10.366;2024-01-06T09:58:56;3.77;;;3.20;;
43606;SDS011;29197;44.788;10.366;2024-01-06T10:01:46;4.07;;;2.53;;
43606;SDS011;29197;44.788;10.366;2024-01-06T10:04:36;4.30;;;2.97;;
43606;SDS011;29197;44.788;10.366;2024-01-06T10:07:25;4.13;;;3.47;;
43606;SDS011;29197;44.788;10.366;2024-01-06T10:10:14;3.97;;;3.40;;
43606;SDS011;29197;44.788;10.366;2024-01-06T10:13:03;3.47;;;3.10;;
43606;SDS011;29197;44.788;10.366;2024-01-06T10:15:53;3.40;;;3.10;;
43606;SDS011;29197;44.788;10.366;2024-01-06T10:18:43;3.93;;;3.23;;
43606;SDS011;29197;44.788;10.366;2024-01-06T10:21:39;3.10;;;2.80;;
43606;SDS011;29197;44.788;10.366;2024-01-06T10:24:28;3.83;;;2.70;;
43606;SDS011;29197;44.788;10.366;2024-01-06T10:27:18;3.67;;;3.03;;
43606;SDS011;29197;44.788;10.366;2024-01-06T10:30:07;3.70;;;3.20;;
43606;SDS011;29197;44.788;10.366;2024-01-06T10:32:57;3.70;;;3.10;;
43606;SDS011;29197;44.788;10.366;2024-01-06T10:35:47;3.80;;;3.30;;
43606;SDS011;29197;44.788;10.366;2024-01-06T10:38:36;4.77;;;3.53;;
43606;SDS011;29197;44.788;10.366;2024-01-06T10:41:25;3.83;;;3.43;;
43606;SDS011;29197;44.788;10.366;2024-01-06T10:44:15;3.87;;;3.33;;
43606;SDS011;29197;44.788;10.366;2024-01-06T10:47:04;4.17;;;3.47;;
43606;SDS011;29197;44.788;10.366;2024-01-06T10:49:53;3.47;;;2.87;;
43606;SDS011;29197;44.788;10.366;2024-01-06T10:52:49;4.90;;;3.37;;
43606;SDS011;29197;44.788;10.366;2024-01-06T10:55:39;4.00;;;3.17;;
43606;SDS011;29197;44.788;10.366;2024-01-06T10:58:28;3.50;;;3.07;;
43606;SDS011;29197;44.788;10.366;2024-01-06T11:01:19;3.40;;;3.10;;
43606;SDS011;29197;44.788;10.366;2024-01-06T11:04:13;3.30;;;3.00;;
43606;SDS011;29197;44.788;10.366;2024-01-06T11:07:03;3.53;;;3.23;;
43606;SDS011;29197;44.788;10.366;2024-01-06T11:09:56;8.33;;;3.33;;
43606;SDS011;29197;44.788;10.366;2024-01-06T11:12:47;5.43;;;3.23;;
43606;SDS011;29197;44.788;10.366;2024-01-06T11:15:54;3.17;;;2.87;;
43606;SDS011;29197;44.788;10.366;2024-01-06T11:18:43;2.90;;;2.63;;
43606;SDS011;29197;44.788;10.366;2024-01-06T11:21:33;4.37;;;3.27;;
43606;SDS011;29197;44.788;10.366;2024-01-06T11:24:22;3.70;;;3.30;;
43606;SDS011;29197;44.788;10.366;2024-01-06T11:27:18;5.50;;;2.57;;
43606;SDS011;29197;44.788;10.366;2024-01-06T11:30:09;3.43;;;2.80;;
43606;SDS011;29197;44.788;10.366;2024-01-06T11:33:07;2.77;;;2.57;;
43606;SDS011;29197;44.788;10.366;2024-01-06T11:35:57;3.63;;;3.03;;
43606;SDS011;29197;44.788;10.366;2024-01-06T11:38:50;3.23;;;2.93;;
43606;SDS011;29197;44.788;10.366;2024-01-06T11:41:47;3.33;;;3.03;;
43606;SDS011;29197;44.788;10.366;2024-01-06T11:44:38;3.00;;;2.57;;
43606;SDS011;29197;44.788;10.366;2024-01-06T11:47:27;3.10;;;2.80;;
43606;SDS011;29197;44.788;10.366;2024-01-06T11:50:18;3.10;;;2.80;;
43606;SDS011;29197;44.788;10.366;2024-01-06T11:53:07;4.20;;;3.27;;
43606;SDS011;29197;44.788;10.366;2024-01-06T11:55:57;4.57;;;3.23;;
43606;SDS011;29197;44.788;10.366;2024-01-06T11:58:46;3.33;;;3.03;;
43606;SDS011;29197;44.788;10.366;2024-01-06T12:01:37;2.87;;;2.60;;
43606;SDS011;29197;44.788;10.366;2024-01-06T12:04:26;3.53;;;3.23;;
43606;SDS011;29197;44.788;10.366;2024-01-06T12:07:16;2.70;;;2.50;;
43606;SDS011;29197;44.788;10.366;2024-01-06T12:10:06;2.33;;;2.23;;
43606;SDS011;29197;44.788;10.366;2024-01-06T12:12:59;3.37;;;2.23;;
43606;SDS011;29197;44.788;10.366;2024-01-06T12:15:48;2.83;;;2.63;;
43606;SDS011;29197;44.788;10.366;2024-01-06T12:18:39;4.23;;;2.43;;
43606;SDS011;29197;44.788;10.366;2024-01-06T12:21:29;2.60;;;2.40;;
43606;SDS011;29197;44.788;10.366;2024-01-06T12:24:19;2.80;;;2.50;;
43606;SDS011;29197;44.788;10.366;2024-01-06T12:27:08;3.33;;;2.20;;
43606;SDS011;29197;44.788;10.366;2024-01-06T12:29:58;2.77;;;2.50;;
43606;SDS011;29197;44.788;10.366;2024-01-06T12:32:48;2.43;;;2.23;;
43606;SDS011;29197;44.788;10.366;2024-01-06T12:35:38;3.97;;;2.30;;
43606;SDS011;29197;44.788;10.366;2024-01-06T12:38:27;2.60;;;2.40;;
43606;SDS011;29197;44.788;10.366;2024-01-06T12:41:18;2.73;;;2.53;;
43606;SDS011;29197;44.788;10.366;2024-01-06T12:44:07;3.67;;;3.10;;
43606;SDS011;29197;44.788;10.366;2024-01-06T12:46:56;3.37;;;2.97;;
43606;SDS011;29197;44.788;10.366;2024-01-06T12:49:45;3.20;;;2.90;;
43606;SDS011;29197;44.788;10.366;2024-01-06T12:52:35;3.83;;;2.97;;
43606;SDS011;29197;44.788;10.366;2024-01-06T12:55:26;3.00;;;2.80;;
43606;SDS011;29197;44.788;10.366;2024-01-06T12:58:15;3.33;;;2.73;;
43606;SDS011;29197;44.788;10.366;2024-01-06T13:01:04;2.90;;;2.70;;
43606;SDS011;29197;44.788;10.366;2024-01-06T13:03:53;4.03;;;3.43;;
43606;SDS011;29197;44.788;10.366;2024-01-06T13:06:46;3.00;;;2.70;;
43606;SDS011;29197;44.788;10.366;2024-01-06T13:09:37;2.20;;;2.00;;
43606;SDS011;29197;44.788;10.366;2024-01-06T13:12:26;2.40;;;2.20;;
43606;SDS011;29197;44.788;10.366;2024-01-06T13:15:16;1.93;;;1.83;;
43606;SDS011;29197;44.788;10.366;2024-01-06T13:18:05;2.33;;;2.13;;
43606;SDS011;29197;44.788;10.366;2024-01-06T13:20:54;2.70;;;2.30;;
43606;SDS011;29197;44.788;10.366;2024-01-06T13:23:43;2.67;;;2.47;;
43606;SDS011;29197;44.788;10.366;2024-01-06T13:26:34;2.43;;;2.23;;
43606;SDS011;29197;44.788;10.366;2024-01-06T13:29:23;2.90;;;2.47;;
43606;SDS011;29197;44.788;10.366;2024-01-06T13:32:12;2.47;;;2.27;;
43606;SDS011;29197;44.788;10.366;2024-01-06T13:35:02;2.57;;;2.10;;
43606;SDS011;29197;44.788;10.366;2024-01-06T13:37:52;1.77;;;1.67;;
43606;SDS011;29197;44.788;10.366;2024-01-06T13:40:42;1.87;;;1.77;;
43606;SDS011;29197;44.788;10.366;2024-01-06T13:43:32;1.93;;;1.80;;
43606;SDS011;29197;44.788;10.366;2024-01-06T13:46:21;1.60;;;1.50;;
43606;SDS011;29197;44.788;10.366;2024-01-06T13:49:11;2.97;;;1.70;;
43606;SDS011;29197;44.788;10.366;2024-01-06T13:52:00;1.80;;;1.70;;
43606;SDS011;29197;44.788;10.366;2024-01-06T13:54:49;1.97;;;1.77;;
43606;SDS011;29197;44.788;10.366;2024-01-06T13:57:39;2.27;;;1.83;;
43606;SDS011;29197;44.788;10.366;2024-01-06T14:00:31;2.63;;;2.00;;
43606;SDS011;29197;44.788;10.366;2024-01-06T14:03:19;2.33;;;2.13;;
43606;SDS011;29197;44.788;10.366;2024-01-06T14:06:09;3.47;;;1.80;;
43606;SDS011;29197;44.788;10.366;2024-01-06T14:08:58;1.50;;;1.40;;
43606;SDS011;29197;44.788;10.366;2024-01-06T14:11:47;2.10;;;1.90;;
43606;SDS011;29197;44.788;10.366;2024-01-06T14:14:36;2.03;;;1.90;;
43606;SDS011;29197;44.788;10.366;2024-01-06T14:17:26;1.80;;;1.70;;
43606;SDS011;29197;44.788;10.366;2024-01-06T14:20:16;1.77;;;1.60;;
43606;SDS011;29197;44.788;10.366;2024-01-06T14:23:06;1.80;;;1.70;;
43606;SDS011;29197;44.788;10.366;2024-01-06T14:25:58;2.10;;;1.90;;
43606;SDS011;29197;44.788;10.366;2024-01-06T14:28:47;2.10;;;1.90;;
43606;SDS011;29197;44.788;10.366;2024-01-06T14:31:36;2.83;;;1.80;;
43606;SDS011;29197;44.788;10.366;2024-01-06T14:34:26;2.67;;;1.83;;
43606;SDS011;29197;44.788;10.366;2024-01-06T14:37:18;1.90;;;1.70;;
43606;SDS011;29197;44.788;10.366;2024-01-06T14:40:11;3.80;;;1.80;;
43606;SDS011;29197;44.788;10.366;2024-01-06T14:43:03;2.10;;;2.00;;
43606;SDS011;29197;44.788;10.366;2024-01-06T14:45:53;2.23;;;2.03;;
43606;SDS011;29197;44.788;10.366;2024-01-06T14:48:42;2.30;;;2.10;;
43606;SDS011;29197;44.788;10.366;2024-01-06T14:51:34;3.83;;;2.10;;
43606;SDS011;29197;44.788;10.366;2024-01-06T14:54:23;2.10;;;1.90;;
43606;SDS011;29197;44.788;10.366;2024-01-06T14:57:12;1.93;;;1.80;;
43606;SDS011;29197;44.788;10.366;2024-01-06T15:00:04;3.57;;;1.93;;
43606;SDS011;29197;44.788;10.366;2024-01-06T15:02:53;2.37;;;2.20;;
43606;SDS011;29197;44.788;10.366;2024-01-06T15:05:42;3.13;;;2.27;;
43606;SDS011;29197;44.788;10.366;2024-01-06T15:08:32;2.33;;;2.13;;
43606;SDS011;29197;44.788;10.366;2024-01-06T15:11:21;3.67;;;2.00;;
43606;SDS011;29197;44.788;10.366;2024-01-06T15:14:10;3.03;;;2.00;;
43606;SDS011;29197;44.788;10.366;2024-01-06T15:16:59;2.77;;;2.43;;
43606;SDS011;29197;44.788;10.366;2024-01-06T15:19:48;2.20;;;2.00;;
43606;SDS011;29197;44.788;10.366;2024-01-06T15:22:37;2.23;;;2.03;;
43606;SDS011;29197;44.788;10.366;2024-01-06T15:25:28;3.23;;;2.70;;
43606;SDS011;29197;44.788;10.366;2024-01-06T15:28:17;2.20;;;2.00;;
43606;SDS011;29197;44.788;10.366;2024-01-06T15:31:06;2.53;;;2.00;;
43606;SDS011;29197;44.788;10.366;2024-01-06T15:33:55;2.30;;;2.10;;
43606;SDS011;29197;44.788;10.366;2024-01-06T15:36:44;3.53;;;2.60;;
43606;SDS011;29197;44.788;10.366;2024-01-06T15:39:34;2.60;;;2.40;;
43606;SDS011;29197;44.788;10.366;2024-01-06T15:42:24;3.13;;;2.60;;
43606;SDS011;29197;44.788;10.366;2024-01-06T15:45:13;3.10;;;2.80;;
43606;SDS011;29197;44.788;10.366;2024-01-06T15:48:03;3.07;;;2.77;;
43606;SDS011;29197;44.788;10.366;2024-01-06T15:50:52;13.03;;;3.80;;
43606;SDS011;29197;44.788;10.366;2024-01-06T15:53:41;8.40;;;3.70;;
43606;SDS011;29197;44.788;10.366;2024-01-06T15:56:29;4.07;;;3.33;;
43606;SDS011;29197;44.788;10.366;2024-01-06T15:59:20;5.70;;;3.40;;
43606;SDS011;29197;44.788;10.366;2024-01-06T16:02:09;3.90;;;3.50;;
43606;SDS011;29197;44.788;10.366;2024-01-06T16:04:58;3.80;;;3.50;;
43606;SDS011;29197;44.788;10.366;2024-01-06T16:07:47;4.10;;;3.70;;
43606;SDS011;29197;44.788;10.366;2024-01-06T16:10:36;4.43;;;4.03;;
43606;SDS011;29197;44.788;10.366;2024-01-06T16:13:25;4.63;;;4.23;;
43606;SDS011;29197;44.788;10.366;2024-01-06T16:16:15;4.93;;;4.53;;
43606;SDS011;29197;44.788;10.366;2024-01-06T16:19:04;5.97;;;4.80;;
43606;SDS011;29197;44.788;10.366;2024-01-06T16:21:53;7.17;;;5.00;;
43606;SDS011;29197;44.788;10.366;2024-01-06T16:24:53;5.17;;;4.67;;
43606;SDS011;29197;44.788;10.366;2024-01-06T16:27:41;5.87;;;4.70;;
43606;SDS011;29197;44.788;10.366;2024-01-06T16:30:30;6.70;;;5.17;;
43606;SDS011;29197;44.788;10.366;2024-01-06T16:33:21;5.23;;;4.73;;
43606;SDS011;29197;44.788;10.366;2024-01-06T16:36:10;5.67;;;5.00;;
43606;SDS011;29197;44.788;10.366;2024-01-06T16:38:59;5.63;;;5.03;;
43606;SDS011;29197;44.788;10.366;2024-01-06T16:41:48;6.60;;;4.93;;
43606;SDS011;29197;44.788;10.366;2024-01-06T16:44:37;6.20;;;4.90;;